Time;durP1;ratioP1;P1;durP2;ratioP2;P2;SDS_P1;SDS_P2;PMS_P1;PMS_P2;Temp;Humidity;BMP_temperature;BMP_pressure;BME280_temperature;BME280_humidity;BME280_pressure;Samples;Min_cycle;Max_cycle;Signal;HPM_P1;HPM_P2
2021/08/15 00:00:43;;;;;;;10.35;7.40;;;19.70;99.90;;;;;;2607093;46;20085;31
2021/08/15 00:03:15;;;;;;;15.15;10.48;;;19.70;99.90;;;;;;2607004;46;20049;31
2021/08/15 00:05:45;;;;;;;16.25;10.68;;;19.70;99.90;;;;;;2607285;46;20822;31
2021/08/15 00:08:17;;;;;;;19.25;11.20;;;19.70;99.90;;;;;;2607510;46;20873;31
2021/08/15 00:10:47;;;;;;;13.45;9.80;;;19.60;99.90;;;;;;2607041;54;20053;31
2021/08/15 00:13:18;;;;;;;14.20;9.02;;;19.60;99.90;;;;;;2607130;46;20076;31
2021/08/15 00:15:50;;;;;;;15.93;10.20;;;19.60;99.90;;;;;;2607155;46;20052;31
2021/08/15 00:18:21;;;;;;;12.10;8.40;;;19.60;99.90;;;;;;2607024;46;20037;31
2021/08/15 00:20:51;;;;;;;14.25;9.65;;;19.60;99.90;;;;;;2607039;46;20078;31
2021/08/15 00:23:22;;;;;;;14.70;10.23;;;19.50;99.90;;;;;;2607079;46;21318;31
2021/08/15 00:25:53;;;;;;;14.32;8.90;;;19.50;99.90;;;;;;2606988;46;20038;31
2021/08/15 00:28:24;;;;;;;12.07;8.53;;;19.50;99.90;;;;;;2607104;46;20089;31
2021/08/15 00:30:55;;;;;;;15.90;10.35;;;19.40;99.90;;;;;;2603965;46;20904;31
2021/08/15 00:33:33;;;;;;;16.60;10.07;;;19.40;99.90;;;;;;2603540;46;20026;31
2021/08/15 00:36:04;;;;;;;19.20;11.30;;;19.30;99.90;;;;;;2603826;46;20101;31
2021/08/15 00:38:34;;;;;;;14.90;10.20;;;19.30;99.90;;;;;;2603461;46;20026;31
2021/08/15 00:41:05;;;;;;;18.55;9.52;;;19.20;99.90;;;;;;2603411;46;20081;31
2021/08/15 00:43:37;;;;;;;14.93;10.65;;;19.10;99.90;;;;;;2603554;46;20843;31
2021/08/15 00:46:12;;;;;;;16.42;9.88;;;19.10;99.90;;;;;;2603775;46;20789;31
2021/08/15 00:48:43;;;;;;;14.32;10.57;;;19.10;99.90;;;;;;2603526;46;20046;31
2021/08/15 00:51:13;;;;;;;13.77;10.98;;;19.10;99.90;;;;;;2603464;46;20045;31
2021/08/15 00:53:44;;;;;;;15.05;9.70;;;19.00;99.90;;;;;;2603341;46;20109;31
2021/08/15 00:56:16;;;;;;;14.40;10.80;;;18.90;99.90;;;;;;2603372;46;20034;31
2021/08/15 00:58:46;;;;;;;16.75;10.13;;;18.90;99.90;;;;;;2603428;46;20693;31
2021/08/15 01:01:18;;;;;;;12.75;9.30;;;19.00;99.90;;;;;;2603278;46;20034;31
2021/08/15 01:03:49;;;;;;;18.42;10.73;;;19.00;99.90;;;;;;2603285;46;20065;31
2021/08/15 01:06:20;;;;;;;14.00;9.52;;;19.00;99.90;;;;;;2603350;54;20030;31
2021/08/15 01:08:51;;;;;;;14.50;10.27;;;18.90;99.90;;;;;;2603381;46;21189;31
2021/08/15 01:11:22;;;;;;;16.25;9.35;;;18.90;99.90;;;;;;2603446;46;20054;31
2021/08/15 01:13:53;;;;;;;12.17;8.63;;;18.90;99.90;;;;;;2603512;46;20057;31
2021/08/15 01:16:24;;;;;;;11.45;8.20;;;18.80;99.90;;;;;;2603841;46;20081;31
2021/08/15 01:18:55;;;;;;;12.30;9.05;;;18.80;99.90;;;;;;2602736;46;20022;31
2021/08/15 01:21:27;;;;;;;11.45;9.30;;;18.80;99.90;;;;;;2603354;46;20132;31
2021/08/15 01:23:57;;;;;;;9.75;8.10;;;18.70;99.90;;;;;;2773286;31;20459;31
2021/08/15 01:26:28;;;;;;;14.40;8.63;;;18.70;99.90;;;;;;2603239;46;20034;31
2021/08/15 01:28:59;;;;;;;12.55;9.25;;;18.60;99.90;;;;;;2603295;46;20030;31
2021/08/15 01:31:30;;;;;;;13.15;9.80;;;18.60;99.90;;;;;;2603251;54;20046;31
2021/08/15 01:34:01;;;;;;;15.13;10.50;;;18.60;99.90;;;;;;2603296;46;20123;31
2021/08/15 01:36:32;;;;;;;14.15;11.00;;;18.50;99.90;;;;;;2603627;46;20050;31
2021/08/15 01:39:03;;;;;;;12.70;10.15;;;18.50;99.90;;;;;;2603374;46;20026;31
2021/08/15 01:41:34;;;;;;;14.70;9.77;;;18.50;99.90;;;;;;2603335;46;20840;31
2021/08/15 01:44:06;;;;;;;13.68;9.93;;;18.50;99.90;;;;;;2603252;46;20034;31
2021/08/15 01:46:37;;;;;;;14.43;10.98;;;18.50;99.90;;;;;;2603544;46;20041;31
2021/08/15 01:49:08;;;;;;;14.38;10.63;;;18.50;99.90;;;;;;2603277;46;20061;31
2021/08/15 01:51:38;;;;;;;14.38;10.02;;;18.50;99.90;;;;;;2603245;46;20026;31
2021/08/15 01:54:10;;;;;;;16.55;9.93;;;18.50;99.90;;;;;;2603345;46;20852;31
2021/08/15 01:56:40;;;;;;;13.40;10.60;;;18.40;99.90;;;;;;2603627;46;20903;31
2021/08/15 01:59:11;;;;;;;15.93;10.75;;;18.40;99.90;;;;;;2603162;47;20030;31
2021/08/15 02:01:43;;;;;;;15.60;11.50;;;18.30;99.90;;;;;;2603455;46;20054;31
2021/08/15 02:04:17;;;;;;;12.80;9.50;;;18.30;99.90;;;;;;2603274;46;19942;31
2021/08/15 02:06:48;;;;;;;14.43;9.80;;;18.30;99.90;;;;;;2603170;47;20078;31
2021/08/15 02:09:18;;;;;;;11.35;8.65;;;18.20;99.90;;;;;;2603177;54;20034;31
2021/08/15 02:11:49;;;;;;;11.33;8.73;;;18.20;99.90;;;;;;2603237;46;20034;31
2021/08/15 02:14:21;;;;;;;14.15;10.85;;;18.20;99.90;;;;;;2603156;46;20848;31
2021/08/15 02:16:51;;;;;;;16.35;9.90;;;18.20;99.90;;;;;;2603274;46;20053;31
2021/08/15 02:19:22;;;;;;;16.00;9.60;;;18.10;99.90;;;;;;2603092;47;20983;31
2021/08/15 02:21:51;;;;;;;16.30;10.02;;;18.10;99.90;;;;;;2702028;39;22181;31
2021/08/15 02:24:22;;;;;;;21.58;10.68;;;18.10;99.90;;;;;;2603218;47;20038;31
2021/08/15 02:26:54;;;;;;;12.45;8.50;;;18.00;99.90;;;;;;2603536;47;20030;31
2021/08/15 02:29:24;;;;;;;13.27;9.20;;;18.00;99.90;;;;;;2603202;46;20049;31
2021/08/15 02:31:55;;;;;;;11.27;8.10;;;18.00;99.90;;;;;;2603150;46;20902;31
2021/08/15 02:34:28;;;;;;;12.30;8.00;;;18.00;99.90;;;;;;2603121;46;20042;31
2021/08/15 02:36:58;;;;;;;11.93;9.03;;;18.00;99.90;;;;;;2602945;54;25116;31
2021/08/15 02:39:29;;;;;;;14.95;9.75;;;18.00;99.90;;;;;;2603363;46;20123;31
2021/08/15 02:42:01;;;;;;;14.30;8.50;;;18.00;99.90;;;;;;2603022;54;20034;31
2021/08/15 02:44:32;;;;;;;10.10;7.40;;;17.90;99.90;;;;;;2603050;47;20034;31
2021/08/15 02:47:03;;;;;;;13.00;8.27;;;18.00;99.90;;;;;;2603484;46;20027;31
2021/08/15 02:49:42;;;;;;;12.32;8.48;;;17.90;99.90;;;;;;2602990;54;20813;31
2021/08/15 02:52:12;;;;;;;12.00;8.75;;;17.90;99.90;;;;;;2603018;47;20026;31
2021/08/15 02:54:44;;;;;;;12.65;8.10;;;17.90;99.90;;;;;;2603053;47;20038;31
2021/08/15 02:57:14;;;;;;;16.80;9.93;;;18.00;99.90;;;;;;2602994;46;20034;31
2021/08/15 02:59:45;;;;;;;13.13;10.10;;;17.90;99.90;;;;;;2602948;46;20089;31
2021/08/15 03:02:17;;;;;;;17.30;9.70;;;17.90;99.90;;;;;;2603124;47;20782;31
2021/08/15 03:04:49;;;;;;;13.85;10.38;;;17.80;99.90;;;;;;2602867;54;20281;31
2021/08/15 03:07:20;;;;;;;13.18;10.23;;;17.80;99.90;;;;;;2603000;46;20035;31
2021/08/15 03:09:51;;;;;;;13.25;8.90;;;17.80;99.90;;;;;;2602996;47;20034;31
2021/08/15 03:12:22;;;;;;;11.38;8.95;;;17.70;99.90;;;;;;2603019;47;20057;31
2021/08/15 03:14:53;;;;;;;16.45;10.68;;;17.70;99.90;;;;;;2602923;47;19986;31
2021/08/15 03:17:23;;;;;;;15.10;10.93;;;17.70;99.90;;;;;;2602880;47;20031;31
2021/08/15 03:19:55;;;;;;;14.30;10.10;;;17.60;99.90;;;;;;2602895;47;20036;31
2021/08/15 03:22:25;;;;;;;13.02;9.00;;;17.60;99.90;;;;;;2602827;47;20458;31
2021/08/15 03:24:57;;;;;;;17.53;10.93;;;17.50;99.90;;;;;;2602985;47;20046;31
2021/08/15 03:27:27;;;;;;;10.75;9.45;;;17.50;99.90;;;;;;2602777;47;20033;31
2021/08/15 03:29:59;;;;;;;13.00;9.63;;;17.40;99.90;;;;;;2602855;47;20039;31
2021/08/15 03:32:29;;;;;;;12.20;9.25;;;17.40;99.90;;;;;;2602830;47;20026;31
2021/08/15 03:35:00;;;;;;;13.20;10.97;;;17.40;99.90;;;;;;2602937;47;20052;31
2021/08/15 03:37:33;;;;;;;12.50;9.50;;;17.40;99.90;;;;;;2602852;47;19957;31
2021/08/15 03:40:04;;;;;;;15.70;12.05;;;17.40;99.90;;;;;;2602709;54;20046;31
2021/08/15 03:42:36;;;;;;;16.48;11.75;;;17.40;99.90;;;;;;2602869;47;20799;31
2021/08/15 03:45:08;;;;;;;12.18;10.45;;;17.40;99.90;;;;;;2602923;47;20085;31
2021/08/15 03:47:38;;;;;;;15.40;11.52;;;17.40;99.90;;;;;;2602794;47;19993;31
2021/08/15 03:50:11;;;;;;;14.98;11.68;;;17.40;99.90;;;;;;2602803;47;20027;31
2021/08/15 03:52:41;;;;;;;14.85;11.85;;;17.40;99.90;;;;;;2602780;47;20760;31
2021/08/15 03:55:13;;;;;;;16.42;11.88;;;17.30;99.90;;;;;;2603106;47;20058;31
2021/08/15 03:57:43;;;;;;;15.50;11.60;;;17.20;99.90;;;;;;2602858;47;20778;31
2021/08/15 04:00:15;;;;;;;17.67;10.93;;;17.20;99.90;;;;;;2602784;47;20026;31
2021/08/15 04:02:46;;;;;;;17.25;11.35;;;17.20;99.90;;;;;;2602799;47;20097;31
2021/08/15 04:05:16;;;;;;;16.38;10.25;;;17.20;99.90;;;;;;2603053;54;20026;31
2021/08/15 04:07:47;;;;;;;13.50;11.30;;;17.10;99.90;;;;;;2603701;46;20768;31
2021/08/15 04:10:18;;;;;;;12.65;9.95;;;17.10;99.90;;;;;;2603599;54;20023;31
2021/08/15 04:12:49;;;;;;;14.43;10.70;;;17.10;99.90;;;;;;2603525;46;20947;31
2021/08/15 04:15:19;;;;;;;13.77;10.68;;;17.10;99.90;;;;;;2603422;46;20102;31
2021/08/15 04:17:49;;;;;;;13.00;9.90;;;17.20;99.90;;;;;;2603501;46;20053;31
2021/08/15 04:20:21;;;;;;;16.40;10.75;;;17.20;99.90;;;;;;2603493;46;20877;31
2021/08/15 04:22:51;;;;;;;15.63;10.13;;;17.30;99.90;;;;;;2603581;46;20057;31
2021/08/15 04:25:22;;;;;;;14.70;9.98;;;17.40;99.90;;;;;;2603954;46;20002;31
2021/08/15 04:27:53;;;;;;;12.20;9.40;;;17.50;99.90;;;;;;2603583;46;20937;31
2021/08/15 04:30:25;;;;;;;13.80;8.85;;;17.70;99.90;;;;;;2603712;46;20907;31
2021/08/15 04:32:55;;;;;;;16.02;10.10;;;17.80;99.90;;;;;;2603818;46;20001;31
2021/08/15 04:35:27;;;;;;;13.35;10.00;;;18.00;99.90;;;;;;2603592;46;20030;31
2021/08/15 04:37:57;;;;;;;12.55;10.13;;;18.10;99.90;;;;;;2603487;46;20904;31
2021/08/15 04:40:28;;;;;;;12.85;11.15;;;18.30;99.90;;;;;;2603452;46;20042;31
2021/08/15 04:43:00;;;;;;;13.70;10.40;;;18.50;99.90;;;;;;2603835;46;20037;31
2021/08/15 04:45:31;;;;;;;16.10;11.30;;;18.50;99.90;;;;;;2603543;46;20089;31
2021/08/15 04:48:02;;;;;;;11.50;10.10;;;18.60;99.90;;;;;;2603474;46;20938;31
2021/08/15 04:50:33;;;;;;;14.57;11.20;;;18.70;99.90;;;;;;2603435;46;20042;31
2021/08/15 04:53:04;;;;;;;15.25;10.95;;;18.90;99.90;;;;;;2603677;46;20926;31
2021/08/15 04:55:36;;;;;;;12.95;10.05;;;19.10;99.90;;;;;;2603450;46;20085;31
2021/08/15 04:58:06;;;;;;;15.35;11.95;;;19.30;99.90;;;;;;2603394;54;20852;31
2021/08/15 05:00:38;;;;;;;12.68;11.13;;;19.50;99.90;;;;;;2603646;46;20089;31
2021/08/15 05:03:09;;;;;;;16.60;12.20;;;19.70;99.90;;;;;;2603322;46;20030;31
2021/08/15 05:05:40;;;;;;;19.10;12.07;;;19.90;99.90;;;;;;2603389;46;20807;31
2021/08/15 05:08:11;;;;;;;17.33;11.73;;;20.20;99.90;;;;;;2603366;46;20062;31
2021/08/15 05:10:42;;;;;;;17.25;13.00;;;20.40;99.90;;;;;;2680743;39;21468;31
2021/08/15 05:13:13;;;;;;;17.17;11.32;;;20.60;99.90;;;;;;2603354;46;20042;31
2021/08/15 05:15:44;;;;;;;13.95;11.15;;;20.80;99.90;;;;;;2603415;46;20882;31
2021/08/15 05:18:15;;;;;;;17.33;11.40;;;21.00;99.90;;;;;;2602808;46;20046;31
2021/08/15 05:20:46;;;;;;;12.60;10.50;;;21.20;99.90;;;;;;2603511;46;20036;31
2021/08/15 05:23:17;;;;;;;15.32;10.93;;;21.30;99.90;;;;;;2603385;46;20030;31
2021/08/15 05:25:47;;;;;;;15.20;11.65;;;21.60;99.90;;;;;;2603427;54;20799;31
2021/08/15 05:28:18;;;;;;;14.57;10.45;;;21.70;99.90;;;;;;2603442;46;20089;31
2021/08/15 05:30:50;;;;;;;14.90;11.30;;;21.90;99.90;;;;;;2603800;46;20089;31
2021/08/15 05:33:21;;;;;;;15.68;10.32;;;22.10;99.90;;;;;;2603376;47;20855;31
2021/08/15 05:35:52;;;;;;;12.10;9.77;;;22.20;99.90;;;;;;2603209;47;20117;31
2021/08/15 05:38:23;;;;;;;16.20;10.80;;;22.40;99.90;;;;;;2603726;46;20069;31
2021/08/15 05:40:54;;;;;;;13.18;10.77;;;22.60;99.90;;;;;;2603224;46;20104;31
2021/08/15 05:43:25;;;;;;;15.18;10.35;;;22.70;99.90;;;;;;2603735;46;20049;31
2021/08/15 05:45:56;;;;;;;13.43;10.70;;;22.90;99.90;;;;;;2603337;54;20038;31
2021/08/15 05:48:27;;;;;;;13.00;11.02;;;23.00;99.90;;;;;;2603228;47;20030;31
2021/08/15 05:50:58;;;;;;;16.15;10.23;;;23.30;99.90;;;;;;2603382;46;20874;31
2021/08/15 05:53:29;;;;;;;13.48;9.90;;;23.40;99.90;;;;;;2603347;46;20885;31
2021/08/15 05:56:00;;;;;;;12.98;10.57;;;23.60;99.90;;;;;;2603513;46;20814;31
2021/08/15 05:58:31;;;;;;;14.93;10.67;;;23.80;99.90;;;;;;2603422;46;20038;31
2021/08/15 06:01:02;;;;;;;19.10;10.63;;;24.00;99.90;;;;;;2603461;46;20929;31
2021/08/15 06:03:33;;;;;;;15.10;10.37;;;24.10;99.90;;;;;;2603243;54;20034;31
2021/08/15 06:06:05;;;;;;;14.45;9.82;;;24.40;99.90;;;;;;2603403;46;20026;31
2021/08/15 06:08:36;;;;;;;12.77;10.05;;;24.60;99.90;;;;;;2603362;46;20030;31
2021/08/15 06:11:06;;;;;;;15.35;9.90;;;24.80;99.90;;;;;;2603228;46;20042;31
2021/08/15 06:13:37;;;;;;;13.13;9.80;;;25.00;99.90;;;;;;2603248;46;20068;31
2021/08/15 06:16:09;;;;;;;14.98;10.02;;;25.20;99.90;;;;;;2603207;46;20027;31
2021/08/15 06:18:40;;;;;;;16.43;10.20;;;25.50;99.90;;;;;;2603301;46;20042;31
2021/08/15 06:21:11;;;;;;;15.47;9.57;;;25.60;99.90;;;;;;2603116;46;19998;31
2021/08/15 06:23:44;;;;;;;11.85;8.77;;;25.80;99.90;;;;;;2603181;47;20956;31
2021/08/15 06:26:15;;;;;;;11.65;9.25;;;26.00;99.90;;;;;;2603011;46;20038;31
2021/08/15 06:28:45;;;;;;;16.65;10.10;;;26.20;99.90;;;;;;2602808;46;20034;31
2021/08/15 06:31:24;;;;;;;17.95;9.32;;;26.40;99.90;;;;;;2602982;46;19946;31
2021/08/15 06:33:55;;;;;;;13.27;8.85;;;26.70;99.90;;;;;;2602978;46;20765;31
2021/08/15 06:36:26;;;;;;;13.82;8.80;;;26.70;99.90;;;;;;2603040;46;20873;31
2021/08/15 06:38:57;;;;;;;9.27;8.30;;;26.90;99.90;;;;;;2602909;54;20872;31
2021/08/15 06:41:28;;;;;;;14.00;8.48;;;27.10;99.90;;;;;;2602750;47;20022;31
2021/08/15 06:43:59;;;;;;;14.70;8.53;;;27.40;99.90;;;;;;2603093;46;20035;31
2021/08/15 06:46:30;;;;;;;13.20;8.65;;;27.40;99.90;;;;;;2603268;46;20030;31
2021/08/15 06:49:01;;;;;;;19.85;8.88;;;27.60;99.90;;;;;;2603032;46;20055;31
2021/08/15 06:51:32;;;;;;;10.70;8.15;;;27.80;99.90;;;;;;2603023;47;20829;31
2021/08/15 06:54:03;;;;;;;17.63;8.80;;;28.00;99.90;;;;;;2602995;54;20038;31
2021/08/15 06:56:33;;;;;;;13.60;8.30;;;28.00;99.90;;;;;;2603036;54;20089;31
2021/08/15 06:59:05;;;;;;;12.05;7.63;;;28.00;99.90;;;;;;2602985;46;20815;31
2021/08/15 07:01:36;;;;;;;10.60;8.00;;;28.10;99.90;;;;;;2603042;47;20034;31
2021/08/15 07:04:07;;;;;;;8.57;6.78;;;28.30;99.90;;;;;;2602955;47;20840;31
2021/08/15 07:06:38;;;;;;;10.23;7.07;;;28.40;99.90;;;;;;2602986;47;20827;31
2021/08/15 07:09:09;;;;;;;10.30;6.70;;;28.40;99.90;;;;;;2602930;54;20034;31
2021/08/15 07:11:40;;;;;;;9.63;6.93;;;28.60;99.90;;;;;;2602953;47;20814;31
2021/08/15 07:14:10;;;;;;;9.02;6.53;;;28.70;99.90;;;;;;2603024;47;20030;31
2021/08/15 07:16:42;;;;;;;8.45;6.60;;;28.90;99.90;;;;;;2602907;47;20026;31
2021/08/15 07:19:13;;;;;;;10.73;7.53;;;29.00;99.90;;;;;;2602856;47;20038;31
2021/08/15 07:21:44;;;;;;;10.02;6.88;;;29.20;99.90;;;;;;2602747;47;20893;31
2021/08/15 07:24:15;;;;;;;12.32;6.50;;;29.30;99.90;;;;;;2602815;54;20082;31
2021/08/15 07:26:46;;;;;;;11.63;6.97;;;29.50;99.90;;;;;;2602888;54;20039;31
2021/08/15 07:29:17;;;;;;;8.43;6.40;;;29.60;99.90;;;;;;2602865;47;20046;31
2021/08/15 07:31:48;;;;;;;8.63;6.28;;;29.80;99.90;;;;;;2602902;47;20030;31
2021/08/15 07:34:19;;;;;;;8.20;6.07;;;29.90;99.90;;;;;;2602864;47;20899;31
2021/08/15 07:36:50;;;;;;;9.10;6.05;;;29.90;99.90;;;;;;2602897;47;20038;31
2021/08/15 07:39:21;;;;;;;7.43;5.78;;;30.10;99.90;;;;;;2602806;47;20090;31
2021/08/15 07:41:52;;;;;;;12.98;5.85;;;30.30;99.90;;;;;;2603441;54;20033;31
2021/08/15 07:44:23;;;;;;;7.45;5.80;;;30.40;99.90;;;;;;2603859;46;20031;31
2021/08/15 07:46:54;;;;;;;6.20;5.60;;;30.60;99.90;;;;;;2603744;46;20116;31
2021/08/15 07:49:24;;;;;;;10.90;6.53;;;30.80;99.90;;;;;;2603541;46;20090;31
2021/08/15 07:51:56;;;;;;;6.38;5.78;;;30.80;99.90;;;;;;2603569;46;20035;31
2021/08/15 07:54:27;;;;;;;7.38;5.65;;;30.90;99.80;;;;;;2603636;47;20036;31
2021/08/15 07:56:58;;;;;;;8.75;6.10;;;31.00;99.70;;;;;;2603605;46;20026;31
2021/08/15 07:59:30;;;;;;;8.38;6.20;;;31.10;99.90;;;;;;2603629;46;20827;31
2021/08/15 08:02:01;;;;;;;8.80;5.95;;;31.10;99.70;;;;;;2603442;46;20026;31
2021/08/15 08:04:32;;;;;;;11.20;5.80;;;31.20;99.80;;;;;;2603502;46;20038;31
2021/08/15 08:07:03;;;;;;;10.02;6.13;;;31.40;99.20;;;;;;2603573;46;20815;31
2021/08/15 08:09:35;;;;;;;8.65;6.35;;;31.60;99.00;;;;;;2603616;46;20049;31
2021/08/15 08:12:06;;;;;;;7.10;5.80;;;31.70;99.30;;;;;;2603650;47;20904;31
2021/08/15 08:14:36;;;;;;;11.30;6.40;;;31.80;99.40;;;;;;2603594;46;20053;31
2021/08/15 08:17:08;;;;;;;8.30;6.35;;;31.90;98.50;;;;;;2603660;46;20050;31
2021/08/15 08:19:39;;;;;;;10.63;6.35;;;32.00;98.40;;;;;;2603530;47;19986;31
2021/08/15 08:22:10;;;;;;;7.28;5.40;;;32.00;98.30;;;;;;2603479;46;20038;31
2021/08/15 08:24:41;;;;;;;7.50;5.95;;;32.20;98.60;;;;;;2603502;46;20038;31
2021/08/15 08:27:12;;;;;;;7.57;5.18;;;32.30;98.20;;;;;;2603544;46;20046;31
2021/08/15 08:29:43;;;;;;;9.40;5.68;;;32.40;97.80;;;;;;2603558;46;20078;31
2021/08/15 08:32:14;;;;;;;9.95;6.25;;;32.60;97.30;;;;;;2603547;54;20031;31
2021/08/15 08:34:45;;;;;;;7.90;5.30;;;32.70;97.30;;;;;;2603659;46;20906;31
2021/08/15 08:37:18;;;;;;;6.80;5.25;;;32.70;96.60;;;;;;2603480;46;20840;31
2021/08/15 08:39:49;;;;;;;5.88;4.93;;;32.70;96.30;;;;;;2603521;54;20030;31
2021/08/15 08:42:21;;;;;;;13.05;5.75;;;32.80;96.30;;;;;;2603431;46;20033;31
2021/08/15 08:44:52;;;;;;;8.45;5.53;;;32.80;96.40;;;;;;2603500;54;20902;31
2021/08/15 08:47:23;;;;;;;9.07;5.18;;;32.80;96.00;;;;;;2603509;54;20027;31
2021/08/15 08:49:54;;;;;;;9.38;5.22;;;32.90;96.00;;;;;;2603356;54;20089;31
2021/08/15 08:52:26;;;;;;;8.20;4.70;;;33.00;96.00;;;;;;2603650;46;20034;31
2021/08/15 08:55:01;;;;;;;6.88;4.50;;;32.90;95.50;;;;;;2603479;46;20134;31
2021/08/15 08:57:32;;;;;;;6.72;4.60;;;32.80;95.10;;;;;;2603493;46;20030;31
2021/08/15 09:00:04;;;;;;;6.18;4.70;;;32.80;94.90;;;;;;2603477;46;20913;31
2021/08/15 09:02:40;;;;;;;6.10;4.07;;;33.00;94.40;;;;;;2603506;47;20031;31
2021/08/15 09:05:11;;;;;;;7.25;4.53;;;33.00;94.20;;;;;;2603463;46;20032;31
2021/08/15 09:07:42;;;;;;;6.55;4.30;;;33.10;94.60;;;;;;2603547;46;20033;31
2021/08/15 09:10:13;;;;;;;5.63;4.60;;;33.20;94.20;;;;;;2603390;46;20909;31
2021/08/15 09:12:45;;;;;;;6.63;4.38;;;33.20;93.20;;;;;;2603418;46;20853;31
2021/08/15 09:15:20;;;;;;;4.45;4.00;;;33.20;93.40;;;;;;2764839;31;20049;31
2021/08/15 09:17:51;;;;;;;4.97;4.20;;;33.30;93.10;;;;;;2603442;46;20089;31
2021/08/15 09:20:32;;;;;;;8.57;4.00;;;33.30;92.80;;;;;;2603305;46;20102;31
2021/08/15 09:23:28;;;;;;;6.15;3.90;;;33.30;93.00;;;;;;2603523;46;20085;31
2021/08/15 09:26:19;;;;;;;6.13;4.13;;;33.40;92.20;;;;;;2603370;46;20033;31
2021/08/15 09:28:50;;;;;;;6.32;3.88;;;33.50;92.20;;;;;;2603372;46;20091;31
2021/08/15 09:31:32;;;;;;;4.95;3.80;;;33.40;92.10;;;;;;2603348;54;20030;31
2021/08/15 09:34:03;;;;;;;5.68;3.75;;;33.50;91.80;;;;;;2603263;46;21653;31
2021/08/15 09:36:41;;;;;;;8.23;3.95;;;33.60;92.10;;;;;;2603333;46;20026;31
2021/08/15 09:39:12;;;;;;;7.05;4.00;;;33.60;92.50;;;;;;2603462;46;20031;31
2021/08/15 09:41:49;;;;;;;9.67;4.90;;;33.70;91.90;;;;;;2603258;54;20054;31
2021/08/15 09:44:20;;;;;;;8.13;4.00;;;33.80;91.30;;;;;;2603327;46;19934;31
2021/08/15 09:47:04;;;;;;;5.85;3.88;;;33.80;91.70;;;;;;2603448;46;20057;31
2021/08/15 09:49:45;;;;;;;5.50;4.00;;;33.80;91.30;;;;;;2603401;46;20851;31
2021/08/15 09:52:19;;;;;;;8.13;3.90;;;33.90;91.20;;;;;;2603392;46;20037;31
2021/08/15 09:54:56;;;;;;;5.55;3.60;;;33.90;91.40;;;;;;2603342;46;20076;31
2021/08/15 09:57:32;;;;;;;5.45;3.83;;;33.90;90.40;;;;;;2603310;54;20053;31
2021/08/15 10:00:27;;;;;;;6.25;4.03;;;34.00;92.00;;;;;;2603358;54;20870;31
2021/08/15 10:02:59;;;;;;;6.93;3.78;;;34.00;90.90;;;;;;2603172;46;20031;31
2021/08/15 10:08:15;;;;;;;4.88;3.80;;;33.90;90.90;;;;;;2646321;53;20478;31
2021/08/15 10:10:46;;;;;;;4.88;4.00;;;33.90;90.50;;;;;;2607197;54;20026;31
2021/08/15 10:13:17;;;;;;;5.60;3.57;;;33.90;90.90;;;;;;2607362;46;20030;31
2021/08/15 10:16:06;;;;;;;4.82;3.45;;;33.80;90.60;;;;;;2607550;46;20906;31
2021/08/15 10:18:39;;;;;;;4.15;3.30;;;33.80;90.60;;;;;;2607341;54;20049;31
2021/08/15 10:21:16;;;;;;;4.40;3.20;;;33.70;90.10;;;;;;2607571;46;20034;31
2021/08/15 10:23:47;;;;;;;5.75;3.88;;;33.60;89.30;;;;;;2607306;46;20030;31
2021/08/15 10:26:36;;;;;;;6.22;3.20;;;33.60;90.60;;;;;;2607483;46;20057;31
2021/08/15 10:29:31;;;;;;;8.32;3.90;;;33.60;90.10;;;;;;2607495;46;20874;31
2021/08/15 10:32:17;;;;;;;3.80;3.17;;;33.30;89.70;;;;;;2607261;46;20035;31
2021/08/15 10:34:51;;;;;;;7.43;3.95;;;33.20;89.40;;;;;;2706146;38;21598;31
2021/08/15 10:37:25;;;;;;;4.90;3.60;;;33.00;90.20;;;;;;2607282;54;20859;31
2021/08/15 10:40:02;;;;;;;4.22;3.33;;;33.00;90.70;;;;;;2607232;46;20101;31
2021/08/15 10:42:39;;;;;;;17.10;4.13;;;33.10;90.00;;;;;;2607599;46;20030;31
2021/08/15 10:45:19;;;;;;;5.82;3.17;;;33.30;90.30;;;;;;2607246;54;20034;31
2021/08/15 10:48:04;;;;;;;4.60;3.10;;;33.40;89.40;;;;;;2607150;54;20097;31
2021/08/15 10:50:48;;;;;;;4.30;3.45;;;33.50;89.40;;;;;;2705681;38;20526;31
2021/08/15 10:53:31;;;;;;;4.38;2.80;;;33.50;90.00;;;;;;2607237;54;20030;31
2021/08/15 10:56:07;;;;;;;4.18;3.38;;;33.50;89.80;;;;;;2607252;54;20026;31
2021/08/15 10:58:39;;;;;;;5.40;3.50;;;33.50;88.80;;;;;;2607057;46;20053;31
2021/08/15 11:01:14;;;;;;;4.50;3.25;;;33.70;89.30;;;;;;2607258;46;20838;31
2021/08/15 11:03:48;;;;;;;10.68;3.33;;;33.60;88.20;;;;;;2606532;46;20855;31
2021/08/15 11:06:31;;;;;;;3.08;2.53;;;33.60;88.70;;;;;;2607080;46;20820;31
2021/08/15 11:09:06;;;;;;;5.00;2.80;;;33.60;86.70;;;;;;2607348;46;20034;31
2021/08/15 11:11:56;;;;;;;5.00;3.10;;;33.50;86.90;;;;;;2607157;46;20050;31
2021/08/15 11:14:27;;;;;;;5.65;3.22;;;33.60;87.00;;;;;;2607170;46;20904;31
2021/08/15 11:17:12;;;;;;;4.40;2.90;;;33.50;87.90;;;;;;2607124;46;20037;31
2021/08/15 11:19:43;;;;;;;5.03;2.80;;;33.50;85.60;;;;;;2603505;47;20880;31
2021/08/15 11:22:20;;;;;;;5.27;3.27;;;33.30;85.50;;;;;;2603534;46;20243;31
2021/08/15 11:25:01;;;;;;;7.80;3.30;;;33.30;86.30;;;;;;2603871;46;20962;31
2021/08/15 11:27:43;;;;;;;4.32;2.97;;;33.30;88.20;;;;;;2603532;46;20897;31
2021/08/15 11:30:18;;;;;;;8.07;3.15;;;33.20;87.00;;;;;;2603460;46;20851;31
2021/08/15 11:32:55;;;;;;;;;;;33.10;85.40;;;;;;2603746;46;19942;31
2021/08/15 11:35:30;;;;;;;4.55;3.03;;;33.10;86.80;;;;;;2603572;46;19990;31
2021/08/15 11:38:01;;;;;;;;;;;32.90;86.60;;;;;;2603760;54;20030;31
2021/08/15 11:40:32;;;;;;;4.30;2.70;;;32.90;86.50;;;;;;2603527;54;19941;31
2021/08/15 11:43:08;;;;;;;5.33;2.73;;;32.80;87.70;;;;;;2603517;46;20026;31
2021/08/15 11:45:44;;;;;;;4.53;2.88;;;32.80;86.90;;;;;;2603472;47;20313;31
2021/08/15 11:48:17;;;;;;;4.28;2.75;;;32.80;86.20;;;;;;2603335;46;20821;31
2021/08/15 11:50:54;;;;;;;6.07;3.10;;;32.90;87.40;;;;;;2603400;54;20034;31
2021/08/15 11:53:30;;;;;;;5.47;2.95;;;32.80;86.40;;;;;;2603438;54;20101;31
2021/08/15 11:56:07;;;;;;;4.65;2.65;;;32.70;85.60;;;;;;2603720;46;20050;31
2021/08/15 11:58:50;;;;;;;3.67;2.78;;;32.70;86.00;;;;;;2603732;46;20089;31
2021/08/15 12:01:23;;;;;;;8.55;2.95;;;32.60;86.90;;;;;;2603613;46;20852;31
2021/08/15 12:03:58;;;;;;;4.93;3.15;;;32.60;86.20;;;;;;2603509;46;20030;31
2021/08/15 12:06:32;;;;;;;3.40;2.70;;;32.50;86.70;;;;;;2603306;54;20030;31
2021/08/15 12:09:03;;;;;;;4.88;2.75;;;32.50;86.80;;;;;;2603601;46;20809;31
2021/08/15 12:11:35;;;;;;;3.40;2.70;;;32.40;86.50;;;;;;2602734;54;20889;31
2021/08/15 12:14:10;;;;;;;6.22;3.10;;;32.40;86.50;;;;;;2603254;54;20046;31
2021/08/15 12:16:55;;;;;;;6.20;3.30;;;32.30;86.80;;;;;;2603348;54;20078;31
2021/08/15 12:19:28;;;;;;;8.50;3.10;;;32.20;86.40;;;;;;2603214;46;20129;31
2021/08/15 12:21:59;;;;;;;6.20;3.40;;;32.20;87.80;;;;;;2603512;46;20033;31
2021/08/15 12:24:32;;;;;;;3.30;2.60;;;32.20;86.90;;;;;;2603272;47;20885;31
2021/08/15 12:27:05;;;;;;;3.20;2.90;;;32.10;88.20;;;;;;2603596;46;20052;31
2021/08/15 12:29:42;;;;;;;4.40;3.20;;;32.10;88.60;;;;;;2603263;46;20852;31
2021/08/15 12:32:16;;;;;;;4.45;3.10;;;32.10;89.00;;;;;;2603415;46;20850;31
2021/08/15 12:34:53;;;;;;;5.78;3.03;;;32.10;87.80;;;;;;2603330;54;20889;31
2021/08/15 12:37:25;;;;;;;3.27;2.77;;;32.10;88.10;;;;;;2603577;46;20030;31
2021/08/15 12:40:16;;;;;;;4.00;2.72;;;32.10;86.90;;;;;;2603304;46;20031;31
2021/08/15 12:42:56;;;;;;;4.55;3.22;;;32.20;87.40;;;;;;2603308;46;20905;31
2021/08/15 12:45:42;;;;;;;5.30;3.10;;;32.20;87.50;;;;;;2603285;54;20030;31
2021/08/15 12:48:18;;;;;;;5.70;2.80;;;32.20;87.90;;;;;;2603205;46;20038;31
2021/08/15 12:50:59;;;;;;;5.40;3.28;;;32.20;87.90;;;;;;2603234;46;20875;31
2021/08/15 12:53:32;;;;;;;5.05;3.20;;;32.00;88.20;;;;;;2603226;47;20031;31
2021/08/15 12:56:18;;;;;;;6.00;3.47;;;31.90;87.90;;;;;;2602925;54;20033;31
2021/08/15 12:58:49;;;;;;;4.43;3.03;;;31.80;89.00;;;;;;2603120;46;20945;31
2021/08/15 13:01:20;;;;;;;9.10;3.40;;;31.80;87.80;;;;;;2603216;47;20034;31
2021/08/15 13:03:51;;;;;;;6.75;3.40;;;31.80;87.70;;;;;;2603165;54;20877;31
2021/08/15 13:06:24;;;;;;;5.22;3.10;;;31.80;87.70;;;;;;2602586;46;20046;31
2021/08/15 13:08:56;;;;;;;4.82;2.83;;;31.70;87.90;;;;;;2603203;54;20084;31
2021/08/15 13:11:27;;;;;;;8.10;3.10;;;31.70;87.80;;;;;;2603129;54;20088;31
2021/08/15 13:13:58;;;;;;;4.00;2.85;;;31.70;88.90;;;;;;2602566;54;20573;31
2021/08/15 13:16:29;;;;;;;4.28;2.92;;;31.70;88.10;;;;;;2603102;46;20077;31
2021/08/15 13:19:00;;;;;;;3.55;3.10;;;31.70;89.50;;;;;;2603241;47;20867;31